sensor_id;sensor_type;location;lat;lon;timestamp;temperature;humidity
37460;DHT22;23318;50.966;5.284;2023-02-28T00:01:22;2.70;99.90
37460;DHT22;23318;50.966;5.284;2023-02-28T00:03:48;2.70;99.90
37460;DHT22;23318;50.966;5.284;2023-02-28T00:06:14;2.70;99.90
37460;DHT22;23318;50.966;5.284;2023-02-28T00:08:39;2.80;99.90
37460;DHT22;23318;50.966;5.284;2023-02-28T00:11:07;2.60;99.90
37460;DHT22;23318;50.966;5.284;2023-02-28T00:13:35;2.50;99.90
37460;DHT22;23318;50.966;5.284;2023-02-28T00:16:21;2.50;99.90
37460;DHT22;23318;50.966;5.284;2023-02-28T00:18:47;2.40;99.90
37460;DHT22;23318;50.966;5.284;2023-02-28T00:21:13;2.50;99.90
37460;DHT22;23318;50.966;5.284;2023-02-28T00:23:38;2.50;99.90
37460;DHT22;23318;50.966;5.284;2023-02-28T00:26:04;2.50;99.90
37460;DHT22;23318;50.966;5.284;2023-02-28T00:28:30;2.40;99.90
37460;DHT22;23318;50.966;5.284;2023-02-28T00:30:56;2.30;99.90
37460;DHT22;23318;50.966;5.284;2023-02-28T00:33:23;2.30;99.90
37460;DHT22;23318;50.966;5.284;2023-02-28T00:35:48;2.40;99.90
37460;DHT22;23318;50.966;5.284;2023-02-28T00:38:15;2.40;99.90
37460;DHT22;23318;50.966;5.284;2023-02-28T00:40:41;2.30;99.90
37460;DHT22;23318;50.966;5.284;2023-02-28T00:43:07;2.40;99.90
37460;DHT22;23318;50.966;5.284;2023-02-28T00:45:33;2.30;99.90
37460;DHT22;23318;50.966;5.284;2023-02-28T00:47:59;2.30;99.90
37460;DHT22;23318;50.966;5.284;2023-02-28T00:50:24;2.20;99.90
37460;DHT22;23318;50.966;5.284;2023-02-28T00:52:50;2.10;99.90
37460;DHT22;23318;50.966;5.284;2023-02-28T00:55:16;2.10;99.90
37460;DHT22;23318;50.966;5.284;2023-02-28T00:57:41;2.10;99.90
37460;DHT22;23318;50.966;5.284;2023-02-28T01:00:08;2.10;99.90
37460;DHT22;23318;50.966;5.284;2023-02-28T01:02:34;2.20;99.90
37460;DHT22;23318;50.966;5.284;2023-02-28T01:05:00;2.10;99.90
37460;DHT22;23318;50.966;5.284;2023-02-28T01:07:26;2.10;99.90
37460;DHT22;23318;50.966;5.284;2023-02-28T01:09:51;2.00;99.90
37460;DHT22;23318;50.966;5.284;2023-02-28T01:12:17;2.00;99.90
37460;DHT22;23318;50.966;5.284;2023-02-28T01:14:42;2.00;99.90
37460;DHT22;23318;50.966;5.284;2023-02-28T01:17:08;1.90;99.90
37460;DHT22;23318;50.966;5.284;2023-02-28T01:19:34;1.90;99.90
37460;DHT22;23318;50.966;5.284;2023-02-28T01:22:02;1.90;99.90
37460;DHT22;23318;50.966;5.284;2023-02-28T01:24:29;1.80;99.90
37460;DHT22;23318;50.966;5.284;2023-02-28T01:26:54;1.90;99.90
37460;DHT22;23318;50.966;5.284;2023-02-28T01:29:20;1.80;99.90
37460;DHT22;23318;50.966;5.284;2023-02-28T01:31:46;1.80;99.90
37460;DHT22;23318;50.966;5.284;2023-02-28T01:34:11;1.90;99.90
37460;DHT22;23318;50.966;5.284;2023-02-28T01:36:37;1.70;99.90
37460;DHT22;23318;50.966;5.284;2023-02-28T01:39:03;1.60;99.90
37460;DHT22;23318;50.966;5.284;2023-02-28T01:41:32;1.50;99.90
37460;DHT22;23318;50.966;5.284;2023-02-28T01:44:05;1.40;99.90
37460;DHT22;23318;50.966;5.284;2023-02-28T01:46:32;1.40;99.90
37460;DHT22;23318;50.966;5.284;2023-02-28T01:49:12;1.40;99.90
37460;DHT22;23318;50.966;5.284;2023-02-28T01:51:51;1.50;99.90
37460;DHT22;23318;50.966;5.284;2023-02-28T01:54:22;1.50;99.90
37460;DHT22;23318;50.966;5.284;2023-02-28T01:57:06;1.50;99.90
37460;DHT22;23318;50.966;5.284;2023-02-28T01:59:42;1.50;99.90
37460;DHT22;23318;50.966;5.284;2023-02-28T02:02:15;1.40;99.90
37460;DHT22;23318;50.966;5.284;2023-02-28T02:05:07;1.40;99.90
37460;DHT22;23318;50.966;5.284;2023-02-28T02:07:38;1.40;99.90
37460;DHT22;23318;50.966;5.284;2023-02-28T02:42:39;1.10;99.90
37460;DHT22;23318;50.966;5.284;2023-02-28T02:45:17;1.10;99.90
37460;DHT22;23318;50.966;5.284;2023-02-28T02:47:45;1.10;99.90
37460;DHT22;23318;50.966;5.284;2023-02-28T02:50:15;1.10;99.90
37460;DHT22;23318;50.966;5.284;2023-02-28T02:52:46;1.20;99.90
37460;DHT22;23318;50.966;5.284;2023-02-28T02:55:15;1.00;99.90
37460;DHT22;23318;50.966;5.284;2023-02-28T02:58:02;1.00;99.90
37460;DHT22;23318;50.966;5.284;2023-02-28T03:00:36;1.00;99.90
37460;DHT22;23318;50.966;5.284;2023-02-28T03:03:03;0.90;99.90
37460;DHT22;23318;50.966;5.284;2023-02-28T03:05:50;0.80;99.90
37460;DHT22;23318;50.966;5.284;2023-02-28T03:08:16;0.80;99.90
37460;DHT22;23318;50.966;5.284;2023-02-28T03:10:44;0.80;99.90
37460;DHT22;23318;50.966;5.284;2023-02-28T03:13:14;0.80;99.90
37460;DHT22;23318;50.966;5.284;2023-02-28T03:21:38;0.70;99.90
37460;DHT22;23318;50.966;5.284;2023-02-28T03:24:15;0.70;99.90
37460;DHT22;23318;50.966;5.284;2023-02-28T03:26:46;0.70;99.90
37460;DHT22;23318;50.966;5.284;2023-02-28T03:29:21;0.70;99.90
37460;DHT22;23318;50.966;5.284;2023-02-28T03:34:24;0.70;99.90
37460;DHT22;23318;50.966;5.284;2023-02-28T03:36:55;0.60;99.90
37460;DHT22;23318;50.966;5.284;2023-02-28T03:39:28;0.50;99.90
37460;DHT22;23318;50.966;5.284;2023-02-28T03:41:57;0.60;99.90
37460;DHT22;23318;50.966;5.284;2023-02-28T03:44:30;0.70;99.90
37460;DHT22;23318;50.966;5.284;2023-02-28T03:47:04;0.70;99.90
37460;DHT22;23318;50.966;5.284;2023-02-28T03:49:46;0.80;99.90
37460;DHT22;23318;50.966;5.284;2023-02-28T03:52:14;0.80;99.90
37460;DHT22;23318;50.966;5.284;2023-02-28T03:54:51;0.90;99.90
37460;DHT22;23318;50.966;5.284;2023-02-28T03:57:26;0.90;99.90
37460;DHT22;23318;50.966;5.284;2023-02-28T03:59:57;1.10;99.90
37460;DHT22;23318;50.966;5.284;2023-02-28T04:02:24;1.10;99.90
37460;DHT22;23318;50.966;5.284;2023-02-28T04:04:50;1.20;99.90
37460;DHT22;23318;50.966;5.284;2023-02-28T04:07:17;1.20;99.90
37460;DHT22;23318;50.966;5.284;2023-02-28T04:09:43;1.10;99.90
37460;DHT22;23318;50.966;5.284;2023-02-28T04:12:09;1.00;99.90
37460;DHT22;23318;50.966;5.284;2023-02-28T04:14:35;1.00;99.90
37460;DHT22;23318;50.966;5.284;2023-02-28T04:17:00;1.00;99.90
37460;DHT22;23318;50.966;5.284;2023-02-28T04:19:26;1.00;99.90
37460;DHT22;23318;50.966;5.284;2023-02-28T04:21:53;0.80;99.90
37460;DHT22;23318;50.966;5.284;2023-02-28T04:24:25;0.80;99.90
37460;DHT22;23318;50.966;5.284;2023-02-28T04:26:53;0.60;99.90
37460;DHT22;23318;50.966;5.284;2023-02-28T04:29:23;0.70;99.90
37460;DHT22;23318;50.966;5.284;2023-02-28T04:31:49;0.60;99.90
37460;DHT22;23318;50.966;5.284;2023-02-28T04:34:14;0.70;99.90
37460;DHT22;23318;50.966;5.284;2023-02-28T04:36:40;0.60;99.90
37460;DHT22;23318;50.966;5.284;2023-02-28T04:39:06;0.60;99.90
37460;DHT22;23318;50.966;5.284;2023-02-28T04:41:31;0.60;99.90
37460;DHT22;23318;50.966;5.284;2023-02-28T04:43:57;0.50;99.90
37460;DHT22;23318;50.966;5.284;2023-02-28T04:46:23;0.50;99.90
37460;DHT22;23318;50.966;5.284;2023-02-28T04:48:49;0.50;99.90
37460;DHT22;23318;50.966;5.284;2023-02-28T04:51:17;0.50;99.90
37460;DHT22;23318;50.966;5.284;2023-02-28T04:53:43;0.50;99.90
37460;DHT22;23318;50.966;5.284;2023-02-28T04:56:14;0.50;99.90
37460;DHT22;23318;50.966;5.284;2023-02-28T04:58:41;0.40;99.90
37460;DHT22;23318;50.966;5.284;2023-02-28T05:01:22;0.40;99.90
37460;DHT22;23318;50.966;5.284;2023-02-28T05:03:48;0.30;99.90
37460;DHT22;23318;50.966;5.284;2023-02-28T05:06:15;0.40;99.90
37460;DHT22;23318;50.966;5.284;2023-02-28T05:08:40;0.40;99.90
37460;DHT22;23318;50.966;5.284;2023-02-28T05:11:18;0.40;99.90
37460;DHT22;23318;50.966;5.284;2023-02-28T05:13:44;0.40;99.90
37460;DHT22;23318;50.966;5.284;2023-02-28T05:16:10;0.30;99.90
37460;DHT22;23318;50.966;5.284;2023-02-28T05:18:36;0.20;99.90
37460;DHT22;23318;50.966;5.284;2023-02-28T05:21:02;0.30;99.90
37460;DHT22;23318;50.966;5.284;2023-02-28T05:23:28;0.30;99.90
37460;DHT22;23318;50.966;5.284;2023-02-28T05:25:54;0.20;99.90
37460;DHT22;23318;50.966;5.284;2023-02-28T05:28:20;0.20;99.90
37460;DHT22;23318;50.966;5.284;2023-02-28T05:30:46;0.20;99.90
37460;DHT22;23318;50.966;5.284;2023-02-28T05:33:13;0.20;99.90
37460;DHT22;23318;50.966;5.284;2023-02-28T05:35:41;0.20;99.90
37460;DHT22;23318;50.966;5.284;2023-02-28T05:38:10;0.10;99.90
37460;DHT22;23318;50.966;5.284;2023-02-28T05:40:38;0.10;99.90
37460;DHT22;23318;50.966;5.284;2023-02-28T05:43:05;0.20;99.90
37460;DHT22;23318;50.966;5.284;2023-02-28T05:45:30;0.20;99.90
37460;DHT22;23318;50.966;5.284;2023-02-28T05:47:56;0.20;99.90
37460;DHT22;23318;50.966;5.284;2023-02-28T05:50:22;0.20;99.90
37460;DHT22;23318;50.966;5.284;2023-02-28T05:52:52;0.20;99.90
37460;DHT22;23318;50.966;5.284;2023-02-28T05:55:18;0.20;99.90
37460;DHT22;23318;50.966;5.284;2023-02-28T05:57:44;0.20;99.90
37460;DHT22;23318;50.966;5.284;2023-02-28T06:00:10;0.30;99.90
37460;DHT22;23318;50.966;5.284;2023-02-28T06:02:38;0.30;99.90
37460;DHT22;23318;50.966;5.284;2023-02-28T06:05:04;0.20;99.90
37460;DHT22;23318;50.966;5.284;2023-02-28T06:07:29;0.00;99.90
37460;DHT22;23318;50.966;5.284;2023-02-28T06:09:55;-0.10;99.90
37460;DHT22;23318;50.966;5.284;2023-02-28T06:12:21;-0.10;99.90
37460;DHT22;23318;50.966;5.284;2023-02-28T06:14:46;-0.20;99.90
37460;DHT22;23318;50.966;5.284;2023-02-28T06:17:12;-0.30;99.90
37460;DHT22;23318;50.966;5.284;2023-02-28T06:19:38;-0.30;99.90
37460;DHT22;23318;50.966;5.284;2023-02-28T06:22:05;-0.40;99.90
37460;DHT22;23318;50.966;5.284;2023-02-28T06:24:30;-0.40;99.90
37460;DHT22;23318;50.966;5.284;2023-02-28T06:26:57;-0.50;99.90
37460;DHT22;23318;50.966;5.284;2023-02-28T06:29:24;-0.50;99.90
37460;DHT22;23318;50.966;5.284;2023-02-28T06:31:50;-0.50;99.90
37460;DHT22;23318;50.966;5.284;2023-02-28T06:34:16;-0.40;99.90
37460;DHT22;23318;50.966;5.284;2023-02-28T06:36:42;-0.40;99.90
37460;DHT22;23318;50.966;5.284;2023-02-28T06:39:09;-0.30;99.90
37460;DHT22;23318;50.966;5.284;2023-02-28T06:41:35;-0.30;99.90
37460;DHT22;23318;50.966;5.284;2023-02-28T06:44:04;-0.30;99.90
37460;DHT22;23318;50.966;5.284;2023-02-28T06:46:31;-0.30;99.90
37460;DHT22;23318;50.966;5.284;2023-02-28T06:48:57;-0.30;99.90
37460;DHT22;23318;50.966;5.284;2023-02-28T06:51:23;-0.20;99.90
37460;DHT22;23318;50.966;5.284;2023-02-28T06:53:50;-0.30;99.90
37460;DHT22;23318;50.966;5.284;2023-02-28T06:56:17;-0.10;99.90
37460;DHT22;23318;50.966;5.284;2023-02-28T06:58:49;-0.20;99.90
37460;DHT22;23318;50.966;5.284;2023-02-28T07:01:16;-0.20;99.90
37460;DHT22;23318;50.966;5.284;2023-02-28T07:03:42;-0.20;99.90
37460;DHT22;23318;50.966;5.284;2023-02-28T07:06:07;-0.20;99.90
37460;DHT22;23318;50.966;5.284;2023-02-28T07:08:34;-0.20;99.90
37460;DHT22;23318;50.966;5.284;2023-02-28T07:11:00;-0.20;99.90
37460;DHT22;23318;50.966;5.284;2023-02-28T07:13:25;-0.20;99.90
37460;DHT22;23318;50.966;5.284;2023-02-28T07:15:58;-0.10;99.90
37460;DHT22;23318;50.966;5.284;2023-02-28T07:18:24;-0.10;99.90
37460;DHT22;23318;50.966;5.284;2023-02-28T07:20:51;0.00;99.90
37460;DHT22;23318;50.966;5.284;2023-02-28T07:23:17;0.00;99.90
37460;DHT22;23318;50.966;5.284;2023-02-28T07:25:43;0.00;99.90
37460;DHT22;23318;50.966;5.284;2023-02-28T07:28:11;0.00;99.90
37460;DHT22;23318;50.966;5.284;2023-02-28T07:30:37;0.10;99.90
37460;DHT22;23318;50.966;5.284;2023-02-28T07:33:03;0.10;99.90
37460;DHT22;23318;50.966;5.284;2023-02-28T07:35:29;0.20;99.90
37460;DHT22;23318;50.966;5.284;2023-02-28T07:37:55;0.30;99.90
37460;DHT22;23318;50.966;5.284;2023-02-28T07:40:22;0.30;99.90
37460;DHT22;23318;50.966;5.284;2023-02-28T07:42:47;0.40;99.90
37460;DHT22;23318;50.966;5.284;2023-02-28T07:45:13;0.40;99.90
37460;DHT22;23318;50.966;5.284;2023-02-28T07:47:40;0.50;99.90
37460;DHT22;23318;50.966;5.284;2023-02-28T07:50:09;0.70;99.90
37460;DHT22;23318;50.966;5.284;2023-02-28T07:52:36;0.70;99.90
37460;DHT22;23318;50.966;5.284;2023-02-28T07:55:02;0.80;99.90
37460;DHT22;23318;50.966;5.284;2023-02-28T07:57:28;0.70;99.90
37460;DHT22;23318;50.966;5.284;2023-02-28T07:59:53;0.80;99.90
37460;DHT22;23318;50.966;5.284;2023-02-28T08:02:19;0.90;99.90
37460;DHT22;23318;50.966;5.284;2023-02-28T08:04:45;1.00;99.90
37460;DHT22;23318;50.966;5.284;2023-02-28T08:07:13;1.00;99.90
37460;DHT22;23318;50.966;5.284;2023-02-28T08:09:39;1.10;99.90
37460;DHT22;23318;50.966;5.284;2023-02-28T08:12:06;1.10;99.90
37460;DHT22;23318;50.966;5.284;2023-02-28T08:14:32;1.20;99.90
37460;DHT22;23318;50.966;5.284;2023-02-28T08:16:58;1.20;99.90
37460;DHT22;23318;50.966;5.284;2023-02-28T08:19:23;1.30;99.90
37460;DHT22;23318;50.966;5.284;2023-02-28T08:21:49;1.60;99.90
37460;DHT22;23318;50.966;5.284;2023-02-28T08:24:15;1.50;99.90
37460;DHT22;23318;50.966;5.284;2023-02-28T08:26:40;1.40;99.90
37460;DHT22;23318;50.966;5.284;2023-02-28T08:29:06;1.50;99.90
37460;DHT22;23318;50.966;5.284;2023-02-28T08:31:32;1.60;99.90
37460;DHT22;23318;50.966;5.284;2023-02-28T08:33:58;1.70;99.90
37460;DHT22;23318;50.966;5.284;2023-02-28T08:36:25;1.80;99.90
37460;DHT22;23318;50.966;5.284;2023-02-28T08:38:51;1.80;99.90
37460;DHT22;23318;50.966;5.284;2023-02-28T08:41:17;1.80;99.90
37460;DHT22;23318;50.966;5.284;2023-02-28T08:43:43;1.90;99.90
37460;DHT22;23318;50.966;5.284;2023-02-28T08:46:12;2.00;99.90
37460;DHT22;23318;50.966;5.284;2023-02-28T08:48:39;2.00;99.90
37460;DHT22;23318;50.966;5.284;2023-02-28T08:51:08;2.10;99.90
37460;DHT22;23318;50.966;5.284;2023-02-28T08:53:35;2.20;99.90
37460;DHT22;23318;50.966;5.284;2023-02-28T08:56:04;2.30;99.90
37460;DHT22;23318;50.966;5.284;2023-02-28T08:58:31;2.40;99.90
37460;DHT22;23318;50.966;5.284;2023-02-28T09:00:57;2.50;99.80
37460;DHT22;23318;50.966;5.284;2023-02-28T09:03:23;2.60;99.60
37460;DHT22;23318;50.966;5.284;2023-02-28T09:05:57;2.60;99.30
37460;DHT22;23318;50.966;5.284;2023-02-28T09:08:29;2.80;99.40
37460;DHT22;23318;50.966;5.284;2023-02-28T09:10:56;2.90;99.20
37460;DHT22;23318;50.966;5.284;2023-02-28T09:13:24;2.90;98.50
37460;DHT22;23318;50.966;5.284;2023-02-28T09:15:50;3.20;98.20
37460;DHT22;23318;50.966;5.284;2023-02-28T09:18:16;3.10;98.30
37460;DHT22;23318;50.966;5.284;2023-02-28T09:20:42;3.10;97.70
37460;DHT22;23318;50.966;5.284;2023-02-28T09:23:10;3.20;97.50
37460;DHT22;23318;50.966;5.284;2023-02-28T09:25:36;3.20;97.00
37460;DHT22;23318;50.966;5.284;2023-02-28T09:28:03;3.20;96.80
37460;DHT22;23318;50.966;5.284;2023-02-28T09:30:30;3.30;96.90
37460;DHT22;23318;50.966;5.284;2023-02-28T09:32:56;3.30;96.30
37460;DHT22;23318;50.966;5.284;2023-02-28T09:35:22;3.40;96.20
37460;DHT22;23318;50.966;5.284;2023-02-28T09:37:50;3.50;96.20
37460;DHT22;23318;50.966;5.284;2023-02-28T09:40:22;3.60;96.00
37460;DHT22;23318;50.966;5.284;2023-02-28T09:42:50;3.80;95.90
37460;DHT22;23318;50.966;5.284;2023-02-28T09:45:36;4.00;95.50
37460;DHT22;23318;50.966;5.284;2023-02-28T09:48:23;4.00;94.70
37460;DHT22;23318;50.966;5.284;2023-02-28T09:51:02;4.00;94.30
37460;DHT22;23318;50.966;5.284;2023-02-28T09:53:32;3.80;94.00
37460;DHT22;23318;50.966;5.284;2023-02-28T09:56:04;3.90;94.20
37460;DHT22;23318;50.966;5.284;2023-02-28T09:58:40;4.20;94.20
37460;DHT22;23318;50.966;5.284;2023-02-28T10:01:18;4.30;93.70
37460;DHT22;23318;50.966;5.284;2023-02-28T10:06:20;4.50;93.40
37460;DHT22;23318;50.966;5.284;2023-02-28T10:11:27;4.70;93.30
37460;DHT22;23318;50.966;5.284;2023-02-28T10:14:16;4.60;92.80
37460;DHT22;23318;50.966;5.284;2023-02-28T10:19:25;4.60;92.30
37460;DHT22;23318;50.966;5.284;2023-02-28T10:24:41;4.60;92.30
37460;DHT22;23318;50.966;5.284;2023-02-28T10:29:45;4.50;91.70
37460;DHT22;23318;50.966;5.284;2023-02-28T10:32:15;4.60;91.60
37460;DHT22;23318;50.966;5.284;2023-02-28T10:34:42;4.50;91.40
37460;DHT22;23318;50.966;5.284;2023-02-28T10:37:09;4.90;91.70
37460;DHT22;23318;50.966;5.284;2023-02-28T10:39:48;5.90;91.10
37460;DHT22;23318;50.966;5.284;2023-02-28T10:42:27;7.00;90.60
37460;DHT22;23318;50.966;5.284;2023-02-28T10:47:57;8.80;85.50
37460;DHT22;23318;50.966;5.284;2023-02-28T10:50:30;8.60;84.40
37460;DHT22;23318;50.966;5.284;2023-02-28T10:53:20;8.20;82.80
37460;DHT22;23318;50.966;5.284;2023-02-28T10:56:39;8.30;83.00
37460;DHT22;23318;50.966;5.284;2023-02-28T10:58:58;8.50;82.60
37460;DHT22;23318;50.966;5.284;2023-02-28T11:03:56;9.20;79.00
37460;DHT22;23318;50.966;5.284;2023-02-28T11:06:26;10.00;77.80
37460;DHT22;23318;50.966;5.284;2023-02-28T11:09:23;9.50;76.60
37460;DHT22;23318;50.966;5.284;2023-02-28T11:11:51;9.10;76.30
37460;DHT22;23318;50.966;5.284;2023-02-28T11:14:25;9.20;75.80
37460;DHT22;23318;50.966;5.284;2023-02-28T11:16:52;9.10;75.40
37460;DHT22;23318;50.966;5.284;2023-02-28T11:19:24;9.00;76.40
37460;DHT22;23318;50.966;5.284;2023-02-28T11:22:00;9.90;75.50
37460;DHT22;23318;50.966;5.284;2023-02-28T11:26:53;9.60;73.80
37460;DHT22;23318;50.966;5.284;2023-02-28T11:29:30;8.50;73.90
37460;DHT22;23318;50.966;5.284;2023-02-28T11:32:13;9.80;74.90
37460;DHT22;23318;50.966;5.284;2023-02-28T11:34:42;10.10;73.50
37460;DHT22;23318;50.966;5.284;2023-02-28T11:37:27;10.30;73.00
37460;DHT22;23318;50.966;5.284;2023-02-28T11:39:54;11.10;72.60
37460;DHT22;23318;50.966;5.284;2023-02-28T11:47:49;11.50;70.60
37460;DHT22;23318;50.966;5.284;2023-02-28T11:50:22;11.10;70.70
37460;DHT22;23318;50.966;5.284;2023-02-28T11:52:54;10.30;70.70
37460;DHT22;23318;50.966;5.284;2023-02-28T11:55:39;10.60;71.50
37460;DHT22;23318;50.966;5.284;2023-02-28T12:06:48;12.30;66.40
37460;DHT22;23318;50.966;5.284;2023-02-28T12:09:46;11.00;67.30
37460;DHT22;23318;50.966;5.284;2023-02-28T12:12:48;11.70;68.00
37460;DHT22;23318;50.966;5.284;2023-02-28T12:23:54;11.40;67.30
37460;DHT22;23318;50.966;5.284;2023-02-28T12:28:34;11.90;66.00
37460;DHT22;23318;50.966;5.284;2023-02-28T12:31:05;12.30;65.20
37460;DHT22;23318;50.966;5.284;2023-02-28T12:33:35;12.70;66.70
37460;DHT22;23318;50.966;5.284;2023-02-28T12:36:09;13.10;64.70
37460;DHT22;23318;50.966;5.284;2023-02-28T12:38:48;13.20;64.10
37460;DHT22;23318;50.966;5.284;2023-02-28T12:44:06;12.70;64.00
37460;DHT22;23318;50.966;5.284;2023-02-28T12:46:38;11.70;64.30
37460;DHT22;23318;50.966;5.284;2023-02-28T12:49:13;11.80;64.40
37460;DHT22;23318;50.966;5.284;2023-02-28T12:51:40;12.10;64.10
37460;DHT22;23318;50.966;5.284;2023-02-28T12:59:54;12.10;64.00
37460;DHT22;23318;50.966;5.284;2023-02-28T13:02:45;12.70;63.90
37460;DHT22;23318;50.966;5.284;2023-02-28T13:05:46;13.40;63.40
37460;DHT22;23318;50.966;5.284;2023-02-28T13:10:59;12.30;63.50
37460;DHT22;23318;50.966;5.284;2023-02-28T13:13:28;12.60;64.00
37460;DHT22;23318;50.966;5.284;2023-02-28T13:16:07;12.10;62.70
37460;DHT22;23318;50.966;5.284;2023-02-28T13:18:43;12.10;63.50
37460;DHT22;23318;50.966;5.284;2023-02-28T13:21:26;13.20;63.90
37460;DHT22;23318;50.966;5.284;2023-02-28T13:34:41;12.70;62.60
37460;DHT22;23318;50.966;5.284;2023-02-28T13:39:54;12.70;63.60
37460;DHT22;23318;50.966;5.284;2023-02-28T13:48:02;13.80;61.70
37460;DHT22;23318;50.966;5.284;2023-02-28T13:50:38;12.70;62.80
37460;DHT22;23318;50.966;5.284;2023-02-28T13:56:22;12.70;62.60
37460;DHT22;23318;50.966;5.284;2023-02-28T13:58:57;13.10;62.60
37460;DHT22;23318;50.966;5.284;2023-02-28T14:01:57;13.30;63.20
37460;DHT22;23318;50.966;5.284;2023-02-28T14:07:01;13.90;61.40
37460;DHT22;23318;50.966;5.284;2023-02-28T14:09:32;12.40;63.40
37460;DHT22;23318;50.966;5.284;2023-02-28T14:15:03;14.80;62.50
37460;DHT22;23318;50.966;5.284;2023-02-28T14:17:31;15.30;61.80
37460;DHT22;23318;50.966;5.284;2023-02-28T14:19:57;14.00;61.90
37460;DHT22;23318;50.966;5.284;2023-02-28T14:25:20;13.50;61.80
37460;DHT22;23318;50.966;5.284;2023-02-28T14:36:27;13.40;62.00
37460;DHT22;23318;50.966;5.284;2023-02-28T14:38:59;13.90;62.40
37460;DHT22;23318;50.966;5.284;2023-02-28T14:41:38;13.10;61.80
37460;DHT22;23318;50.966;5.284;2023-02-28T14:44:20;13.90;61.70
37460;DHT22;23318;50.966;5.284;2023-02-28T14:47:12;14.30;62.10
37460;DHT22;23318;50.966;5.284;2023-02-28T14:49:36;13.30;62.10
37460;DHT22;23318;50.966;5.284;2023-02-28T14:52:16;13.70;62.50
37460;DHT22;23318;50.966;5.284;2023-02-28T14:54:43;13.80;62.00
37460;DHT22;23318;50.966;5.284;2023-02-28T15:00:06;14.20;61.80
37460;DHT22;23318;50.966;5.284;2023-02-28T15:02:37;14.30;61.90
37460;DHT22;23318;50.966;5.284;2023-02-28T15:05:16;15.30;61.00
37460;DHT22;23318;50.966;5.284;2023-02-28T15:07:45;14.50;60.90
37460;DHT22;23318;50.966;5.284;2023-02-28T15:10:18;14.60;60.70
37460;DHT22;23318;50.966;5.284;2023-02-28T15:12:58;14.30;61.10
37460;DHT22;23318;50.966;5.284;2023-02-28T15:15:30;14.50;61.50
37460;DHT22;23318;50.966;5.284;2023-02-28T15:18:03;15.50;60.40
37460;DHT22;23318;50.966;5.284;2023-02-28T15:20:31;14.40;61.30
37460;DHT22;23318;50.966;5.284;2023-02-28T15:22:58;14.70;60.80
37460;DHT22;23318;50.966;5.284;2023-02-28T15:25:25;14.40;61.00
37460;DHT22;23318;50.966;5.284;2023-02-28T15:27:55;14.10;60.90
37460;DHT22;23318;50.966;5.284;2023-02-28T15:30:28;14.40;60.90
37460;DHT22;23318;50.966;5.284;2023-02-28T15:33:06;13.70;60.90
37460;DHT22;23318;50.966;5.284;2023-02-28T15:35:34;13.10;61.30
37460;DHT22;23318;50.966;5.284;2023-02-28T15:38:26;13.50;60.90
37460;DHT22;23318;50.966;5.284;2023-02-28T15:40:58;13.60;60.60
37460;DHT22;23318;50.966;5.284;2023-02-28T15:45:58;13.10;61.60
37460;DHT22;23318;50.966;5.284;2023-02-28T15:48:31;13.40;61.70
37460;DHT22;23318;50.966;5.284;2023-02-28T15:51:05;13.60;61.50
37460;DHT22;23318;50.966;5.284;2023-02-28T15:53:36;13.90;61.80
37460;DHT22;23318;50.966;5.284;2023-02-28T15:56:05;14.40;61.20
37460;DHT22;23318;50.966;5.284;2023-02-28T15:58:33;13.70;60.20
37460;DHT22;23318;50.966;5.284;2023-02-28T16:01:08;13.40;61.00
37460;DHT22;23318;50.966;5.284;2023-02-28T16:04:04;13.10;61.40
37460;DHT22;23318;50.966;5.284;2023-02-28T16:06:44;12.50;61.80
37460;DHT22;23318;50.966;5.284;2023-02-28T16:09:16;12.70;61.60
37460;DHT22;23318;50.966;5.284;2023-02-28T16:11:50;12.50;61.70
37460;DHT22;23318;50.966;5.284;2023-02-28T16:14:22;12.70;62.10
37460;DHT22;23318;50.966;5.284;2023-02-28T16:16:54;13.60;61.90
37460;DHT22;23318;50.966;5.284;2023-02-28T16:19:21;13.60;61.50
37460;DHT22;23318;50.966;5.284;2023-02-28T16:21:47;13.70;61.70
37460;DHT22;23318;50.966;5.284;2023-02-28T16:24:13;13.50;61.70
37460;DHT22;23318;50.966;5.284;2023-02-28T16:26:40;13.10;61.40
37460;DHT22;23318;50.966;5.284;2023-02-28T16:29:08;12.50;61.30
37460;DHT22;23318;50.966;5.284;2023-02-28T16:31:37;11.50;61.90
37460;DHT22;23318;50.966;5.284;2023-02-28T16:34:04;11.50;62.30
37460;DHT22;23318;50.966;5.284;2023-02-28T16:36:30;11.70;61.90
37460;DHT22;23318;50.966;5.284;2023-02-28T16:38:56;11.50;62.10
37460;DHT22;23318;50.966;5.284;2023-02-28T16:41:24;11.60;63.00
37460;DHT22;23318;50.966;5.284;2023-02-28T16:43:53;11.80;62.50
37460;DHT22;23318;50.966;5.284;2023-02-28T16:46:31;11.10;62.60
37460;DHT22;23318;50.966;5.284;2023-02-28T16:48:58;11.00;63.30
37460;DHT22;23318;50.966;5.284;2023-02-28T16:51:24;11.00;64.30
37460;DHT22;23318;50.966;5.284;2023-02-28T16:53:50;11.30;64.10
37460;DHT22;23318;50.966;5.284;2023-02-28T16:56:21;11.20;63.00
37460;DHT22;23318;50.966;5.284;2023-02-28T16:58:48;11.00;63.60
37460;DHT22;23318;50.966;5.284;2023-02-28T17:01:15;10.70;63.80
37460;DHT22;23318;50.966;5.284;2023-02-28T17:03:41;10.00;64.90
37460;DHT22;23318;50.966;5.284;2023-02-28T17:06:25;9.50;65.60
37460;DHT22;23318;50.966;5.284;2023-02-28T17:08:53;9.00;65.80
37460;DHT22;23318;50.966;5.284;2023-02-28T17:11:19;8.60;66.40
37460;DHT22;23318;50.966;5.284;2023-02-28T17:13:46;8.40;67.40
37460;DHT22;23318;50.966;5.284;2023-02-28T17:16:28;8.00;67.50
37460;DHT22;23318;50.966;5.284;2023-02-28T17:18:57;7.80;67.90
37460;DHT22;23318;50.966;5.284;2023-02-28T17:21:23;7.50;68.30
37460;DHT22;23318;50.966;5.284;2023-02-28T17:23:49;7.40;69.00
37460;DHT22;23318;50.966;5.284;2023-02-28T17:26:17;7.40;69.50
37460;DHT22;23318;50.966;5.284;2023-02-28T17:28:46;7.40;69.50
37460;DHT22;23318;50.966;5.284;2023-02-28T17:31:12;7.50;70.40
37460;DHT22;23318;50.966;5.284;2023-02-28T17:33:38;7.50;69.60
37460;DHT22;23318;50.966;5.284;2023-02-28T17:36:04;7.50;70.60
37460;DHT22;23318;50.966;5.284;2023-02-28T17:38:29;7.50;70.50
37460;DHT22;23318;50.966;5.284;2023-02-28T17:40:56;7.40;71.00
37460;DHT22;23318;50.966;5.284;2023-02-28T17:43:28;7.40;71.00
37460;DHT22;23318;50.966;5.284;2023-02-28T17:45:54;7.30;71.40
37460;DHT22;23318;50.966;5.284;2023-02-28T17:48:21;7.30;71.30
37460;DHT22;23318;50.966;5.284;2023-02-28T17:50:46;7.20;73.00
37460;DHT22;23318;50.966;5.284;2023-02-28T17:53:12;7.10;73.70
37460;DHT22;23318;50.966;5.284;2023-02-28T17:55:38;7.10;72.50
37460;DHT22;23318;50.966;5.284;2023-02-28T17:58:04;7.00;72.10
37460;DHT22;23318;50.966;5.284;2023-02-28T18:00:30;6.80;74.00
37460;DHT22;23318;50.966;5.284;2023-02-28T18:02:57;6.80;74.80
37460;DHT22;23318;50.966;5.284;2023-02-28T18:05:23;6.70;75.30
37460;DHT22;23318;50.966;5.284;2023-02-28T18:07:49;6.60;74.50
37460;DHT22;23318;50.966;5.284;2023-02-28T18:10:17;6.60;74.90
37460;DHT22;23318;50.966;5.284;2023-02-28T18:12:47;6.40;74.80
37460;DHT22;23318;50.966;5.284;2023-02-28T18:15:14;6.20;74.90
37460;DHT22;23318;50.966;5.284;2023-02-28T18:17:41;6.20;75.00
37460;DHT22;23318;50.966;5.284;2023-02-28T18:20:08;6.10;75.90